sensor_id;sensor_type;location;lat;lon;timestamp;P1;durP1;ratioP1;P2;durP2;ratioP2
19205;SDS011;59358;52.134;5.596;2024-03-08T00:01:37;51.25;;;26.50;;
19205;SDS011;59358;52.134;5.596;2024-03-08T00:04:04;57.25;;;28.10;;
19205;SDS011;59358;52.134;5.596;2024-03-08T00:06:32;49.75;;;26.17;;
19205;SDS011;59358;52.134;5.596;2024-03-08T00:08:58;57.63;;;27.48;;
19205;SDS011;59358;52.134;5.596;2024-03-08T00:11:25;56.75;;;28.58;;
19205;SDS011;59358;52.134;5.596;2024-03-08T00:13:52;54.15;;;28.10;;
19205;SDS011;59358;52.134;5.596;2024-03-08T00:16:19;52.40;;;27.73;;
19205;SDS011;59358;52.134;5.596;2024-03-08T00:18:49;56.65;;;28.38;;
19205;SDS011;59358;52.134;5.596;2024-03-08T00:21:16;58.10;;;25.77;;
19205;SDS011;59358;52.134;5.596;2024-03-08T00:23:43;51.78;;;27.10;;
19205;SDS011;59358;52.134;5.596;2024-03-08T00:26:11;54.55;;;29.05;;
19205;SDS011;59358;52.134;5.596;2024-03-08T00:28:38;56.45;;;27.15;;
19205;SDS011;59358;52.134;5.596;2024-03-08T00:31:04;51.65;;;27.15;;
19205;SDS011;59358;52.134;5.596;2024-03-08T00:33:32;51.25;;;27.95;;
19205;SDS011;59358;52.134;5.596;2024-03-08T00:36:00;55.85;;;27.25;;
19205;SDS011;59358;52.134;5.596;2024-03-08T00:38:27;52.13;;;26.48;;
19205;SDS011;59358;52.134;5.596;2024-03-08T00:40:54;53.95;;;27.50;;
19205;SDS011;59358;52.134;5.596;2024-03-08T00:43:21;50.17;;;27.15;;
19205;SDS011;59358;52.134;5.596;2024-03-08T00:45:48;61.92;;;30.17;;
19205;SDS011;59358;52.134;5.596;2024-03-08T00:48:15;57.78;;;28.05;;
19205;SDS011;59358;52.134;5.596;2024-03-08T00:50:42;60.22;;;28.25;;
19205;SDS011;59358;52.134;5.596;2024-03-08T00:53:11;54.42;;;28.77;;
19205;SDS011;59358;52.134;5.596;2024-03-08T00:55:38;52.33;;;26.35;;
19205;SDS011;59358;52.134;5.596;2024-03-08T00:58:05;59.58;;;28.75;;
19205;SDS011;59358;52.134;5.596;2024-03-08T01:00:34;54.35;;;27.90;;
19205;SDS011;59358;52.134;5.596;2024-03-08T01:03:01;60.55;;;27.88;;
19205;SDS011;59358;52.134;5.596;2024-03-08T01:05:28;58.28;;;29.27;;
19205;SDS011;59358;52.134;5.596;2024-03-08T01:07:55;55.47;;;27.98;;
19205;SDS011;59358;52.134;5.596;2024-03-08T01:10:23;58.67;;;28.10;;
19205;SDS011;59358;52.134;5.596;2024-03-08T01:12:50;53.03;;;26.92;;
19205;SDS011;59358;52.134;5.596;2024-03-08T01:15:16;52.85;;;28.20;;
19205;SDS011;59358;52.134;5.596;2024-03-08T01:17:44;58.03;;;30.15;;
19205;SDS011;59358;52.134;5.596;2024-03-08T01:20:11;53.78;;;28.20;;
19205;SDS011;59358;52.134;5.596;2024-03-08T01:22:38;55.90;;;29.10;;
19205;SDS011;59358;52.134;5.596;2024-03-08T01:25:05;54.28;;;27.05;;
19205;SDS011;59358;52.134;5.596;2024-03-08T01:27:35;55.00;;;28.50;;
19205;SDS011;59358;52.134;5.596;2024-03-08T01:30:02;54.40;;;28.42;;
19205;SDS011;59358;52.134;5.596;2024-03-08T01:32:29;58.22;;;30.17;;
19205;SDS011;59358;52.134;5.596;2024-03-08T01:34:56;53.00;;;28.75;;
19205;SDS011;59358;52.134;5.596;2024-03-08T01:37:23;53.83;;;28.05;;
19205;SDS011;59358;52.134;5.596;2024-03-08T01:39:49;52.90;;;28.83;;
19205;SDS011;59358;52.134;5.596;2024-03-08T01:42:17;54.70;;;26.77;;
19205;SDS011;59358;52.134;5.596;2024-03-08T01:44:45;54.17;;;28.75;;
19205;SDS011;59358;52.134;5.596;2024-03-08T01:47:12;53.90;;;29.13;;
19205;SDS011;59358;52.134;5.596;2024-03-08T01:49:38;55.88;;;28.75;;
19205;SDS011;59358;52.134;5.596;2024-03-08T01:52:05;52.45;;;26.90;;
19205;SDS011;59358;52.134;5.596;2024-03-08T01:54:33;55.13;;;28.67;;
19205;SDS011;59358;52.134;5.596;2024-03-08T01:57:01;58.03;;;30.38;;
19205;SDS011;59358;52.134;5.596;2024-03-08T01:59:28;55.90;;;29.10;;
19205;SDS011;59358;52.134;5.596;2024-03-08T02:01:57;51.33;;;27.75;;
19205;SDS011;59358;52.134;5.596;2024-03-08T02:04:28;55.55;;;29.33;;
19205;SDS011;59358;52.134;5.596;2024-03-08T02:06:56;52.65;;;27.70;;
19205;SDS011;59358;52.134;5.596;2024-03-08T02:09:23;56.90;;;28.55;;
19205;SDS011;59358;52.134;5.596;2024-03-08T02:11:50;56.30;;;28.45;;
19205;SDS011;59358;52.134;5.596;2024-03-08T02:14:19;54.40;;;28.83;;
19205;SDS011;59358;52.134;5.596;2024-03-08T02:16:46;54.55;;;27.65;;
19205;SDS011;59358;52.134;5.596;2024-03-08T02:19:14;55.72;;;28.23;;
19205;SDS011;59358;52.134;5.596;2024-03-08T02:21:42;62.35;;;30.77;;
19205;SDS011;59358;52.134;5.596;2024-03-08T02:24:12;56.03;;;29.52;;
19205;SDS011;59358;52.134;5.596;2024-03-08T02:26:38;53.72;;;29.25;;
19205;SDS011;59358;52.134;5.596;2024-03-08T02:29:07;52.63;;;28.15;;
19205;SDS011;59358;52.134;5.596;2024-03-08T02:31:34;52.97;;;28.00;;
19205;SDS011;59358;52.134;5.596;2024-03-08T02:34:01;57.20;;;28.83;;
19205;SDS011;59358;52.134;5.596;2024-03-08T02:36:28;58.05;;;29.27;;
19205;SDS011;59358;52.134;5.596;2024-03-08T02:38:56;59.35;;;31.00;;
19205;SDS011;59358;52.134;5.596;2024-03-08T02:41:23;59.30;;;30.73;;
19205;SDS011;59358;52.134;5.596;2024-03-08T02:43:50;55.78;;;30.20;;
19205;SDS011;59358;52.134;5.596;2024-03-08T02:46:16;50.60;;;28.45;;
19205;SDS011;59358;52.134;5.596;2024-03-08T02:48:43;55.38;;;28.85;;
19205;SDS011;59358;52.134;5.596;2024-03-08T02:51:10;59.72;;;29.60;;
19205;SDS011;59358;52.134;5.596;2024-03-08T02:53:37;61.45;;;31.23;;
19205;SDS011;59358;52.134;5.596;2024-03-08T02:56:05;55.53;;;30.05;;
19205;SDS011;59358;52.134;5.596;2024-03-08T02:58:33;56.30;;;29.98;;
19205;SDS011;59358;52.134;5.596;2024-03-08T03:01:00;54.05;;;28.90;;
19205;SDS011;59358;52.134;5.596;2024-03-08T03:03:27;53.35;;;29.13;;
19205;SDS011;59358;52.134;5.596;2024-03-08T03:05:54;52.10;;;28.25;;
19205;SDS011;59358;52.134;5.596;2024-03-08T03:08:21;59.05;;;29.65;;
19205;SDS011;59358;52.134;5.596;2024-03-08T03:10:48;55.13;;;29.75;;
19205;SDS011;59358;52.134;5.596;2024-03-08T03:13:17;57.85;;;30.38;;
19205;SDS011;59358;52.134;5.596;2024-03-08T03:15:46;55.20;;;29.80;;
19205;SDS011;59358;52.134;5.596;2024-03-08T03:18:12;56.92;;;29.67;;
19205;SDS011;59358;52.134;5.596;2024-03-08T03:20:40;57.45;;;31.33;;
19205;SDS011;59358;52.134;5.596;2024-03-08T03:23:07;55.28;;;28.52;;
19205;SDS011;59358;52.134;5.596;2024-03-08T03:25:38;57.33;;;30.77;;
19205;SDS011;59358;52.134;5.596;2024-03-08T03:28:06;57.85;;;30.88;;
19205;SDS011;59358;52.134;5.596;2024-03-08T03:30:37;63.20;;;30.60;;
19205;SDS011;59358;52.134;5.596;2024-03-08T03:33:04;55.05;;;29.65;;
19205;SDS011;59358;52.134;5.596;2024-03-08T03:35:32;59.13;;;29.85;;
19205;SDS011;59358;52.134;5.596;2024-03-08T03:37:59;63.75;;;30.35;;
19205;SDS011;59358;52.134;5.596;2024-03-08T03:40:31;53.70;;;29.60;;
19205;SDS011;59358;52.134;5.596;2024-03-08T03:42:58;52.40;;;29.00;;
19205;SDS011;59358;52.134;5.596;2024-03-08T03:45:25;53.55;;;28.33;;
19205;SDS011;59358;52.134;5.596;2024-03-08T03:47:54;50.58;;;27.90;;
19205;SDS011;59358;52.134;5.596;2024-03-08T03:50:21;57.25;;;29.98;;
19205;SDS011;59358;52.134;5.596;2024-03-08T03:52:48;53.17;;;29.55;;
19205;SDS011;59358;52.134;5.596;2024-03-08T03:55:15;56.67;;;28.30;;
19205;SDS011;59358;52.134;5.596;2024-03-08T03:57:42;52.90;;;28.90;;
19205;SDS011;59358;52.134;5.596;2024-03-08T04:00:11;50.13;;;28.63;;
19205;SDS011;59358;52.134;5.596;2024-03-08T04:02:38;51.50;;;30.05;;
19205;SDS011;59358;52.134;5.596;2024-03-08T04:05:08;49.15;;;28.67;;
19205;SDS011;59358;52.134;5.596;2024-03-08T04:07:36;50.58;;;27.70;;
19205;SDS011;59358;52.134;5.596;2024-03-08T04:10:04;51.08;;;27.88;;
19205;SDS011;59358;52.134;5.596;2024-03-08T04:12:32;53.70;;;28.90;;
19205;SDS011;59358;52.134;5.596;2024-03-08T04:14:59;52.28;;;29.63;;
19205;SDS011;59358;52.134;5.596;2024-03-08T04:17:25;52.80;;;28.77;;
19205;SDS011;59358;52.134;5.596;2024-03-08T04:19:53;52.53;;;28.48;;
19205;SDS011;59358;52.134;5.596;2024-03-08T04:22:21;54.22;;;30.15;;
19205;SDS011;59358;52.134;5.596;2024-03-08T04:24:48;50.65;;;28.15;;
19205;SDS011;59358;52.134;5.596;2024-03-08T04:27:14;50.40;;;29.80;;
19205;SDS011;59358;52.134;5.596;2024-03-08T04:29:41;52.55;;;27.38;;
19205;SDS011;59358;52.134;5.596;2024-03-08T04:32:08;49.85;;;28.02;;
19205;SDS011;59358;52.134;5.596;2024-03-08T04:34:38;54.72;;;27.48;;
19205;SDS011;59358;52.134;5.596;2024-03-08T04:37:05;58.22;;;29.83;;
19205;SDS011;59358;52.134;5.596;2024-03-08T04:39:33;56.78;;;29.60;;
19205;SDS011;59358;52.134;5.596;2024-03-08T04:42:01;46.55;;;29.35;;
19205;SDS011;59358;52.134;5.596;2024-03-08T04:44:29;49.55;;;28.52;;
19205;SDS011;59358;52.134;5.596;2024-03-08T04:46:56;53.05;;;29.83;;
19205;SDS011;59358;52.134;5.596;2024-03-08T04:49:24;56.20;;;30.30;;
19205;SDS011;59358;52.134;5.596;2024-03-08T04:51:50;53.58;;;28.77;;
19205;SDS011;59358;52.134;5.596;2024-03-08T04:54:17;50.65;;;29.58;;
19205;SDS011;59358;52.134;5.596;2024-03-08T04:56:46;49.90;;;30.38;;
19205;SDS011;59358;52.134;5.596;2024-03-08T04:59:12;55.60;;;29.80;;
19205;SDS011;59358;52.134;5.596;2024-03-08T05:01:39;60.28;;;30.17;;
19205;SDS011;59358;52.134;5.596;2024-03-08T05:04:06;52.03;;;30.33;;
19205;SDS011;59358;52.134;5.596;2024-03-08T05:06:32;56.05;;;29.75;;
19205;SDS011;59358;52.134;5.596;2024-03-08T05:08:59;53.53;;;28.70;;
19205;SDS011;59358;52.134;5.596;2024-03-08T05:11:31;58.20;;;30.85;;
19205;SDS011;59358;52.134;5.596;2024-03-08T05:13:59;57.92;;;30.67;;
19205;SDS011;59358;52.134;5.596;2024-03-08T05:16:26;56.95;;;31.52;;
19205;SDS011;59358;52.134;5.596;2024-03-08T05:18:53;65.75;;;31.83;;
19205;SDS011;59358;52.134;5.596;2024-03-08T05:21:20;55.80;;;30.40;;
19205;SDS011;59358;52.134;5.596;2024-03-08T05:23:46;64.43;;;30.75;;
19205;SDS011;59358;52.134;5.596;2024-03-08T05:26:15;52.63;;;31.13;;
19205;SDS011;59358;52.134;5.596;2024-03-08T05:28:42;54.35;;;28.95;;
19205;SDS011;59358;52.134;5.596;2024-03-08T05:31:10;57.20;;;31.65;;
19205;SDS011;59358;52.134;5.596;2024-03-08T05:33:43;50.95;;;29.67;;
19205;SDS011;59358;52.134;5.596;2024-03-08T05:36:10;51.25;;;29.00;;
19205;SDS011;59358;52.134;5.596;2024-03-08T05:38:37;48.75;;;28.90;;
19205;SDS011;59358;52.134;5.596;2024-03-08T05:41:04;60.50;;;31.23;;
19205;SDS011;59358;52.134;5.596;2024-03-08T05:43:32;61.42;;;32.90;;
19205;SDS011;59358;52.134;5.596;2024-03-08T05:46:01;53.72;;;30.63;;
19205;SDS011;59358;52.134;5.596;2024-03-08T05:48:30;57.40;;;31.10;;
19205;SDS011;59358;52.134;5.596;2024-03-08T05:50:58;50.92;;;29.83;;
19205;SDS011;59358;52.134;5.596;2024-03-08T05:53:26;55.25;;;31.35;;
19205;SDS011;59358;52.134;5.596;2024-03-08T05:55:56;56.47;;;29.77;;
19205;SDS011;59358;52.134;5.596;2024-03-08T05:58:23;54.80;;;31.27;;
19205;SDS011;59358;52.134;5.596;2024-03-08T06:00:50;60.95;;;31.38;;
19205;SDS011;59358;52.134;5.596;2024-03-08T06:03:17;58.22;;;30.38;;
19205;SDS011;59358;52.134;5.596;2024-03-08T06:05:47;55.25;;;31.27;;
19205;SDS011;59358;52.134;5.596;2024-03-08T06:08:15;47.20;;;29.58;;
19205;SDS011;59358;52.134;5.596;2024-03-08T06:10:41;51.42;;;29.02;;
19205;SDS011;59358;52.134;5.596;2024-03-08T06:13:08;54.03;;;31.60;;
19205;SDS011;59358;52.134;5.596;2024-03-08T06:15:37;49.80;;;29.33;;
19205;SDS011;59358;52.134;5.596;2024-03-08T06:18:04;55.67;;;31.65;;
19205;SDS011;59358;52.134;5.596;2024-03-08T06:20:31;58.92;;;31.77;;
19205;SDS011;59358;52.134;5.596;2024-03-08T06:22:59;54.40;;;30.20;;
19205;SDS011;59358;52.134;5.596;2024-03-08T06:25:26;49.30;;;28.65;;
19205;SDS011;59358;52.134;5.596;2024-03-08T06:27:53;55.45;;;31.85;;
19205;SDS011;59358;52.134;5.596;2024-03-08T06:30:20;59.03;;;31.65;;
19205;SDS011;59358;52.134;5.596;2024-03-08T06:32:47;56.03;;;29.85;;
19205;SDS011;59358;52.134;5.596;2024-03-08T06:35:14;49.55;;;29.13;;
19205;SDS011;59358;52.134;5.596;2024-03-08T06:37:41;57.28;;;30.42;;
19205;SDS011;59358;52.134;5.596;2024-03-08T06:40:11;56.03;;;32.00;;
19205;SDS011;59358;52.134;5.596;2024-03-08T06:42:39;54.58;;;30.38;;
19205;SDS011;59358;52.134;5.596;2024-03-08T06:45:06;55.53;;;29.40;;
19205;SDS011;59358;52.134;5.596;2024-03-08T06:47:35;55.05;;;30.98;;
19205;SDS011;59358;52.134;5.596;2024-03-08T06:50:02;60.58;;;30.15;;
19205;SDS011;59358;52.134;5.596;2024-03-08T06:52:30;51.80;;;29.85;;
19205;SDS011;59358;52.134;5.596;2024-03-08T06:54:58;59.92;;;31.20;;
19205;SDS011;59358;52.134;5.596;2024-03-08T06:57:28;54.80;;;31.15;;
19205;SDS011;59358;52.134;5.596;2024-03-08T06:59:54;55.22;;;29.35;;
19205;SDS011;59358;52.134;5.596;2024-03-08T07:02:22;57.90;;;29.92;;
19205;SDS011;59358;52.134;5.596;2024-03-08T07:04:49;54.88;;;30.38;;
19205;SDS011;59358;52.134;5.596;2024-03-08T07:07:16;55.90;;;30.23;;
19205;SDS011;59358;52.134;5.596;2024-03-08T07:09:45;53.75;;;29.88;;
19205;SDS011;59358;52.134;5.596;2024-03-08T07:12:14;56.72;;;29.92;;
19205;SDS011;59358;52.134;5.596;2024-03-08T07:14:42;58.25;;;31.08;;
19205;SDS011;59358;52.134;5.596;2024-03-08T07:17:10;53.22;;;30.17;;
19205;SDS011;59358;52.134;5.596;2024-03-08T07:19:37;54.13;;;30.33;;
19205;SDS011;59358;52.134;5.596;2024-03-08T07:22:04;49.92;;;28.95;;
19205;SDS011;59358;52.134;5.596;2024-03-08T07:24:33;53.58;;;30.45;;
19205;SDS011;59358;52.134;5.596;2024-03-08T07:27:15;52.35;;;29.70;;
19205;SDS011;59358;52.134;5.596;2024-03-08T07:29:43;52.38;;;29.85;;
19205;SDS011;59358;52.134;5.596;2024-03-08T07:32:11;52.60;;;29.33;;
19205;SDS011;59358;52.134;5.596;2024-03-08T07:34:45;54.22;;;30.00;;
19205;SDS011;59358;52.134;5.596;2024-03-08T07:37:12;50.10;;;29.92;;
19205;SDS011;59358;52.134;5.596;2024-03-08T07:39:39;48.50;;;28.90;;
19205;SDS011;59358;52.134;5.596;2024-03-08T07:42:06;51.05;;;28.10;;
19205;SDS011;59358;52.134;5.596;2024-03-08T07:44:33;48.97;;;28.65;;
19205;SDS011;59358;52.134;5.596;2024-03-08T07:47:01;50.55;;;28.65;;
19205;SDS011;59358;52.134;5.596;2024-03-08T07:49:28;52.05;;;28.77;;
19205;SDS011;59358;52.134;5.596;2024-03-08T07:51:55;51.47;;;30.30;;
19205;SDS011;59358;52.134;5.596;2024-03-08T07:54:23;52.70;;;30.88;;
19205;SDS011;59358;52.134;5.596;2024-03-08T07:56:51;50.95;;;29.50;;
19205;SDS011;59358;52.134;5.596;2024-03-08T07:59:18;49.58;;;28.05;;
19205;SDS011;59358;52.134;5.596;2024-03-08T08:01:46;49.47;;;29.40;;
19205;SDS011;59358;52.134;5.596;2024-03-08T08:04:14;48.08;;;29.10;;
19205;SDS011;59358;52.134;5.596;2024-03-08T08:06:43;52.80;;;30.38;;
19205;SDS011;59358;52.134;5.596;2024-03-08T08:09:14;45.95;;;27.98;;
19205;SDS011;59358;52.134;5.596;2024-03-08T08:11:59;45.65;;;27.58;;
19205;SDS011;59358;52.134;5.596;2024-03-08T08:14:26;45.90;;;27.13;;
19205;SDS011;59358;52.134;5.596;2024-03-08T08:16:54;48.75;;;29.92;;
19205;SDS011;59358;52.134;5.596;2024-03-08T08:19:23;50.45;;;29.52;;
19205;SDS011;59358;52.134;5.596;2024-03-08T08:21:53;55.55;;;30.15;;
19205;SDS011;59358;52.134;5.596;2024-03-08T08:24:20;53.83;;;31.33;;
19205;SDS011;59358;52.134;5.596;2024-03-08T08:26:47;53.30;;;31.08;;
19205;SDS011;59358;52.134;5.596;2024-03-08T08:29:14;46.08;;;28.65;;
19205;SDS011;59358;52.134;5.596;2024-03-08T08:31:42;48.20;;;28.15;;
19205;SDS011;59358;52.134;5.596;2024-03-08T08:34:09;44.88;;;26.70;;
19205;SDS011;59358;52.134;5.596;2024-03-08T08:36:46;52.63;;;29.70;;
19205;SDS011;59358;52.134;5.596;2024-03-08T08:39:12;53.33;;;29.40;;
19205;SDS011;59358;52.134;5.596;2024-03-08T08:41:42;55.25;;;28.92;;
19205;SDS011;59358;52.134;5.596;2024-03-08T08:44:09;60.92;;;28.50;;
19205;SDS011;59358;52.134;5.596;2024-03-08T08:46:37;61.35;;;29.55;;
19205;SDS011;59358;52.134;5.596;2024-03-08T08:49:04;42.20;;;26.50;;
19205;SDS011;59358;52.134;5.596;2024-03-08T08:51:31;46.80;;;28.05;;
19205;SDS011;59358;52.134;5.596;2024-03-08T08:54:00;46.03;;;28.77;;
19205;SDS011;59358;52.134;5.596;2024-03-08T08:56:27;48.88;;;27.75;;
19205;SDS011;59358;52.134;5.596;2024-03-08T08:58:54;44.45;;;26.33;;
19205;SDS011;59358;52.134;5.596;2024-03-08T09:01:20;43.85;;;25.13;;
19205;SDS011;59358;52.134;5.596;2024-03-08T09:03:47;40.70;;;25.02;;
19205;SDS011;59358;52.134;5.596;2024-03-08T09:06:15;41.40;;;27.17;;
19205;SDS011;59358;52.134;5.596;2024-03-08T09:08:43;43.50;;;26.30;;
19205;SDS011;59358;52.134;5.596;2024-03-08T09:11:12;49.65;;;28.58;;
19205;SDS011;59358;52.134;5.596;2024-03-08T09:13:40;44.78;;;26.10;;
19205;SDS011;59358;52.134;5.596;2024-03-08T09:16:07;43.03;;;25.63;;
19205;SDS011;59358;52.134;5.596;2024-03-08T09:18:35;47.45;;;25.98;;
19205;SDS011;59358;52.134;5.596;2024-03-08T09:21:02;42.10;;;25.63;;
19205;SDS011;59358;52.134;5.596;2024-03-08T09:23:30;39.33;;;26.25;;
19205;SDS011;59358;52.134;5.596;2024-03-08T09:25:57;40.72;;;25.35;;
19205;SDS011;59358;52.134;5.596;2024-03-08T09:28:25;44.40;;;25.17;;
19205;SDS011;59358;52.134;5.596;2024-03-08T09:30:52;39.60;;;24.05;;
19205;SDS011;59358;52.134;5.596;2024-03-08T09:33:19;42.15;;;25.35;;
19205;SDS011;59358;52.134;5.596;2024-03-08T09:35:47;49.47;;;25.35;;
19205;SDS011;59358;52.134;5.596;2024-03-08T09:38:14;50.90;;;25.75;;
19205;SDS011;59358;52.134;5.596;2024-03-08T09:40:42;45.17;;;27.02;;
19205;SDS011;59358;52.134;5.596;2024-03-08T09:43:16;41.72;;;25.25;;
19205;SDS011;59358;52.134;5.596;2024-03-08T09:45:47;42.30;;;24.95;;
19205;SDS011;59358;52.134;5.596;2024-03-08T09:48:16;41.90;;;24.95;;
19205;SDS011;59358;52.134;5.596;2024-03-08T09:50:45;38.10;;;24.90;;
19205;SDS011;59358;52.134;5.596;2024-03-08T09:53:13;34.30;;;22.80;;
19205;SDS011;59358;52.134;5.596;2024-03-08T09:55:40;38.15;;;24.40;;
19205;SDS011;59358;52.134;5.596;2024-03-08T09:58:11;36.92;;;24.33;;
19205;SDS011;59358;52.134;5.596;2024-03-08T10:01:11;47.72;;;24.25;;
19205;SDS011;59358;52.134;5.596;2024-03-08T10:03:58;38.38;;;24.02;;
19205;SDS011;59358;52.134;5.596;2024-03-08T10:06:25;36.78;;;23.48;;
19205;SDS011;59358;52.134;5.596;2024-03-08T10:08:52;39.78;;;22.63;;
19205;SDS011;59358;52.134;5.596;2024-03-08T10:11:19;39.28;;;23.48;;
19205;SDS011;59358;52.134;5.596;2024-03-08T10:14:09;38.28;;;23.33;;
19205;SDS011;59358;52.134;5.596;2024-03-08T10:19:40;37.88;;;21.52;;
19205;SDS011;59358;52.134;5.596;2024-03-08T10:22:40;41.58;;;22.23;;
19205;SDS011;59358;52.134;5.596;2024-03-08T10:28:02;39.72;;;22.13;;
19205;SDS011;59358;52.134;5.596;2024-03-08T10:30:39;32.67;;;22.02;;
19205;SDS011;59358;52.134;5.596;2024-03-08T10:33:45;31.42;;;22.30;;
19205;SDS011;59358;52.134;5.596;2024-03-08T10:36:13;34.35;;;22.98;;
19205;SDS011;59358;52.134;5.596;2024-03-08T10:38:41;34.55;;;20.90;;
19205;SDS011;59358;52.134;5.596;2024-03-08T10:41:13;31.27;;;19.95;;
19205;SDS011;59358;52.134;5.596;2024-03-08T10:46:55;36.33;;;22.08;;
19205;SDS011;59358;52.134;5.596;2024-03-08T10:49:31;39.80;;;21.83;;
19205;SDS011;59358;52.134;5.596;2024-03-08T10:52:04;33.17;;;21.83;;
19205;SDS011;59358;52.134;5.596;2024-03-08T10:54:33;36.05;;;21.67;;
19205;SDS011;59358;52.134;5.596;2024-03-08T10:57:03;34.25;;;21.27;;
19205;SDS011;59358;52.134;5.596;2024-03-08T10:59:33;32.17;;;22.05;;
19205;SDS011;59358;52.134;5.596;2024-03-08T11:02:01;39.90;;;22.17;;
19205;SDS011;59358;52.134;5.596;2024-03-08T11:04:31;30.55;;;20.65;;
19205;SDS011;59358;52.134;5.596;2024-03-08T11:07:00;37.22;;;20.75;;
19205;SDS011;59358;52.134;5.596;2024-03-08T11:09:31;35.13;;;20.48;;
19205;SDS011;59358;52.134;5.596;2024-03-08T11:14:45;30.30;;;20.48;;
19205;SDS011;59358;52.134;5.596;2024-03-08T11:17:14;35.17;;;19.42;;
19205;SDS011;59358;52.134;5.596;2024-03-08T11:19:46;32.92;;;21.42;;
19205;SDS011;59358;52.134;5.596;2024-03-08T11:22:21;29.33;;;19.73;;
19205;SDS011;59358;52.134;5.596;2024-03-08T11:24:49;30.30;;;17.75;;
19205;SDS011;59358;52.134;5.596;2024-03-08T11:27:16;31.73;;;18.90;;
19205;SDS011;59358;52.134;5.596;2024-03-08T11:29:45;28.15;;;19.05;;
19205;SDS011;59358;52.134;5.596;2024-03-08T11:32:34;30.70;;;20.27;;
19205;SDS011;59358;52.134;5.596;2024-03-08T11:35:07;32.45;;;18.48;;
19205;SDS011;59358;52.134;5.596;2024-03-08T11:37:43;40.63;;;18.27;;
19205;SDS011;59358;52.134;5.596;2024-03-08T11:40:11;32.53;;;17.83;;
19205;SDS011;59358;52.134;5.596;2024-03-08T11:42:44;37.65;;;20.98;;
19205;SDS011;59358;52.134;5.596;2024-03-08T11:45:13;40.72;;;18.88;;
19205;SDS011;59358;52.134;5.596;2024-03-08T11:47:41;29.38;;;18.50;;
19205;SDS011;59358;52.134;5.596;2024-03-08T11:50:13;35.88;;;19.33;;
19205;SDS011;59358;52.134;5.596;2024-03-08T11:52:40;32.55;;;18.55;;
19205;SDS011;59358;52.134;5.596;2024-03-08T11:55:08;31.38;;;19.13;;
19205;SDS011;59358;52.134;5.596;2024-03-08T11:57:35;32.17;;;19.10;;
19205;SDS011;59358;52.134;5.596;2024-03-08T12:00:03;30.83;;;18.38;;
19205;SDS011;59358;52.134;5.596;2024-03-08T12:02:31;24.15;;;17.83;;
19205;SDS011;59358;52.134;5.596;2024-03-08T12:05:00;28.95;;;18.75;;
19205;SDS011;59358;52.134;5.596;2024-03-08T12:07:29;30.48;;;17.20;;
19205;SDS011;59358;52.134;5.596;2024-03-08T12:10:16;25.25;;;17.10;;
19205;SDS011;59358;52.134;5.596;2024-03-08T12:12:44;24.25;;;15.77;;
19205;SDS011;59358;52.134;5.596;2024-03-08T12:15:12;28.77;;;16.85;;
19205;SDS011;59358;52.134;5.596;2024-03-08T12:17:40;27.10;;;16.23;;
19205;SDS011;59358;52.134;5.596;2024-03-08T12:20:11;25.08;;;16.75;;
19205;SDS011;59358;52.134;5.596;2024-03-08T12:22:42;27.73;;;15.40;;
19205;SDS011;59358;52.134;5.596;2024-03-08T12:25:11;30.92;;;16.38;;
19205;SDS011;59358;52.134;5.596;2024-03-08T12:27:38;30.88;;;15.98;;
19205;SDS011;59358;52.134;5.596;2024-03-08T12:30:19;23.20;;;16.05;;
19205;SDS011;59358;52.134;5.596;2024-03-08T12:32:53;34.80;;;16.25;;
19205;SDS011;59358;52.134;5.596;2024-03-08T12:35:21;24.02;;;15.77;;
19205;SDS011;59358;52.134;5.596;2024-03-08T12:37:52;45.42;;;18.08;;
19205;SDS011;59358;52.134;5.596;2024-03-08T12:40:25;53.22;;;18.60;;
19205;SDS011;59358;52.134;5.596;2024-03-08T12:42:53;35.20;;;16.92;;
19205;SDS011;59358;52.134;5.596;2024-03-08T12:45:20;32.97;;;16.50;;
19205;SDS011;59358;52.134;5.596;2024-03-08T12:47:49;37.88;;;18.00;;
19205;SDS011;59358;52.134;5.596;2024-03-08T12:50:16;32.50;;;17.55;;
19205;SDS011;59358;52.134;5.596;2024-03-08T12:52:43;37.70;;;18.63;;
19205;SDS011;59358;52.134;5.596;2024-03-08T12:55:11;47.28;;;19.30;;
19205;SDS011;59358;52.134;5.596;2024-03-08T12:57:39;28.52;;;17.25;;
19205;SDS011;59358;52.134;5.596;2024-03-08T13:00:06;24.60;;;15.45;;
19205;SDS011;59358;52.134;5.596;2024-03-08T13:02:38;31.60;;;17.48;;
19205;SDS011;59358;52.134;5.596;2024-03-08T13:05:05;28.80;;;16.85;;
19205;SDS011;59358;52.134;5.596;2024-03-08T13:07:34;39.97;;;17.73;;
19205;SDS011;59358;52.134;5.596;2024-03-08T13:10:03;37.05;;;18.58;;
19205;SDS011;59358;52.134;5.596;2024-03-08T13:12:32;31.08;;;17.33;;
19205;SDS011;59358;52.134;5.596;2024-03-08T13:15:03;32.28;;;16.92;;
19205;SDS011;59358;52.134;5.596;2024-03-08T13:17:30;30.55;;;17.52;;
19205;SDS011;59358;52.134;5.596;2024-03-08T13:19:57;40.80;;;19.05;;
19205;SDS011;59358;52.134;5.596;2024-03-08T13:22:24;26.75;;;18.65;;
19205;SDS011;59358;52.134;5.596;2024-03-08T13:24:54;31.90;;;17.92;;
19205;SDS011;59358;52.134;5.596;2024-03-08T13:34:51;39.28;;;17.20;;
19205;SDS011;59358;52.134;5.596;2024-03-08T13:37:52;27.33;;;16.65;;
19205;SDS011;59358;52.134;5.596;2024-03-08T13:40:46;49.13;;;17.13;;
19205;SDS011;59358;52.134;5.596;2024-03-08T14:00:58;29.20;;;17.23;;
19205;SDS011;59358;52.134;5.596;2024-03-08T14:04:35;22.05;;;15.05;;
19205;SDS011;59358;52.134;5.596;2024-03-08T14:14:53;36.42;;;16.85;;
19205;SDS011;59358;52.134;5.596;2024-03-08T14:24:37;42.78;;;17.70;;
19205;SDS011;59358;52.134;5.596;2024-03-08T14:27:10;31.27;;;17.73;;
19205;SDS011;59358;52.134;5.596;2024-03-08T14:29:40;24.05;;;17.25;;
19205;SDS011;59358;52.134;5.596;2024-03-08T14:32:08;27.00;;;15.75;;
19205;SDS011;59358;52.134;5.596;2024-03-08T14:34:35;21.10;;;16.08;;
19205;SDS011;59358;52.134;5.596;2024-03-08T14:37:05;23.40;;;16.33;;
19205;SDS011;59358;52.134;5.596;2024-03-08T14:39:37;33.38;;;17.05;;
19205;SDS011;59358;52.134;5.596;2024-03-08T14:42:04;37.50;;;17.10;;
19205;SDS011;59358;52.134;5.596;2024-03-08T14:44:33;30.83;;;16.67;;
19205;SDS011;59358;52.134;5.596;2024-03-08T14:47:01;25.25;;;16.00;;
19205;SDS011;59358;52.134;5.596;2024-03-08T14:49:30;26.48;;;16.40;;
19205;SDS011;59358;52.134;5.596;2024-03-08T14:52:01;31.27;;;16.55;;
19205;SDS011;59358;52.134;5.596;2024-03-08T14:54:29;31.00;;;15.93;;
19205;SDS011;59358;52.134;5.596;2024-03-08T14:56:57;21.85;;;15.48;;
19205;SDS011;59358;52.134;5.596;2024-03-08T14:59:24;24.40;;;17.30;;
19205;SDS011;59358;52.134;5.596;2024-03-08T15:01:54;27.23;;;15.95;;
19205;SDS011;59358;52.134;5.596;2024-03-08T15:04:21;31.85;;;16.80;;
19205;SDS011;59358;52.134;5.596;2024-03-08T15:06:48;25.98;;;16.17;;
19205;SDS011;59358;52.134;5.596;2024-03-08T15:09:15;31.80;;;16.23;;
19205;SDS011;59358;52.134;5.596;2024-03-08T15:11:44;28.52;;;17.08;;
19205;SDS011;59358;52.134;5.596;2024-03-08T15:14:15;25.23;;;16.30;;
19205;SDS011;59358;52.134;5.596;2024-03-08T15:16:44;26.40;;;17.48;;
19205;SDS011;59358;52.134;5.596;2024-03-08T15:19:13;52.28;;;17.80;;
19205;SDS011;59358;52.134;5.596;2024-03-08T15:21:40;28.75;;;17.05;;
19205;SDS011;59358;52.134;5.596;2024-03-08T15:24:08;26.65;;;16.13;;